createdAt,value
2022-11-17T00:05:16.006Z,98537.88
2022-11-17T00:15:21.034Z,98527.75
2022-11-17T00:25:24.836Z,98510.06
2022-11-17T00:35:29.807Z,98497.41
2022-11-17T00:45:33.537Z,98489.78
2022-11-17T00:55:38.535Z,98471.31
2022-11-17T01:05:42.619Z,98444.25
2022-11-17T01:15:47.557Z,98427.34
2022-11-17T01:25:51.196Z,98418.03
2022-11-17T01:35:56.667Z,98398.81
2022-11-17T01:46:00.827Z,98380.97
2022-11-17T01:56:11.403Z,98348.25
2022-11-17T02:06:20.873Z,98321.31
2022-11-17T02:16:25.841Z,98299.53
2022-11-17T02:26:59.262Z,98286.00
2022-11-17T02:37:11.743Z,98279.13
2022-11-17T02:47:20.740Z,98254.69
2022-11-17T02:57:34.359Z,98247.16
2022-11-17T03:07:57.955Z,98242.03
2022-11-17T03:18:12.690Z,98230.25
2022-11-17T03:28:18.829Z,98206.63
2022-11-17T03:38:27.720Z,98199.09
2022-11-17T03:48:37.883Z,98170.47
2022-11-17T03:58:53.093Z,98172.97
2022-11-17T04:08:56.775Z,98146.97
2022-11-17T04:19:01.681Z,98156.22
2022-11-17T04:29:05.849Z,98139.44
2022-11-17T04:39:11.673Z,98141.22
2022-11-17T04:49:17.309Z,98146.28
2022-11-17T04:59:22.677Z,98153.94
2022-11-17T05:09:26.370Z,98150.41
2022-11-17T05:19:33.760Z,98148.66
2022-11-17T05:29:37.388Z,98139.41
2022-11-17T05:39:42.458Z,98152.91
2022-11-17T05:49:46.190Z,98148.72
2022-11-17T05:59:55.969Z,98148.59
2022-11-17T06:09:59.644Z,98146.91
2022-11-17T06:20:08.586Z,98168.06
2022-11-17T06:30:12.935Z,98162.88
2022-11-17T06:40:18.362Z,98141.81
2022-11-17T06:50:22.081Z,98154.56
2022-11-17T07:00:27.552Z,98140.25
2022-11-17T07:10:32.436Z,98138.63
2022-11-17T07:20:37.491Z,98133.59
2022-11-17T07:30:41.192Z,98119.31
2022-11-17T07:40:46.328Z,98132.06
2022-11-17T07:50:50.150Z,98109.31
2022-11-17T08:00:55.206Z,98106.09
2022-11-17T08:11:03.736Z,98106.31
2022-11-17T08:21:11.018Z,98103.78
2022-11-17T08:31:14.886Z,98115.63
2022-11-17T08:41:21.655Z,98107.13
2022-11-17T08:51:27.111Z,98099.56
2022-11-17T09:01:32.284Z,98085.19
2022-11-17T09:11:36.167Z,98085.09
2022-11-17T09:21:41.248Z,98100.22
2022-11-17T09:31:45.055Z,98125.63
2022-11-17T09:41:52.640Z,98126.50
2022-11-17T09:52:01.863Z,98142.53
2022-11-17T10:02:11.565Z,98158.47
2022-11-17T10:12:19.596Z,98146.56
2022-11-17T10:22:35.773Z,98161.53
2022-11-17T10:32:49.905Z,98152.28
2022-11-17T10:43:23.720Z,98157.28
2022-11-17T10:53:32.969Z,98169.19
2022-11-17T11:03:38.479Z,98166.38
2022-11-17T11:13:48.406Z,98164.19
2022-11-17T11:24:05.293Z,98152.38
2022-11-17T11:34:28.318Z,98160.69
2022-11-17T11:44:55.508Z,98178.69
2022-11-17T11:55:03.063Z,98187.31
2022-11-17T12:05:20.121Z,98198.94
2022-11-17T12:15:38.687Z,98215.94
2022-11-17T12:25:53.574Z,98204.66
2022-11-17T12:36:31.559Z,98202.66
2022-11-17T12:46:37.595Z,98206.94
2022-11-17T12:56:56.795Z,98215.41
2022-11-17T13:07:05.334Z,98218.59
2022-11-17T13:17:13.294Z,98222.16
2022-11-17T13:27:25.501Z,98220.69
2022-11-17T13:37:31.566Z,98235.34
2022-11-17T13:47:48.406Z,98248.97
2022-11-17T13:57:57.961Z,98266.88
2022-11-17T14:08:22.578Z,98271.97
2022-11-17T14:18:31.674Z,98265.22
2022-11-17T14:28:37.112Z,98258.47
2022-11-17T14:38:40.917Z,98263.53
2022-11-17T14:48:46.115Z,98269.41
2022-11-17T14:58:54.716Z,98283.78
2022-11-17T15:09:02.505Z,98279.50
2022-11-17T15:19:06.763Z,98292.16
2022-11-17T15:29:16.151Z,98334.34
2022-11-17T15:39:20.780Z,98335.72
2022-11-17T15:49:25.856Z,98307.13
2022-11-17T15:59:29.758Z,98316.34
2022-11-17T16:09:35.373Z,98328.13
2022-11-17T16:19:39.066Z,98344.06
2022-11-17T16:29:44.157Z,98333.03
2022-11-17T16:39:47.807Z,98331.22
2022-11-17T16:49:55.222Z,98341.16
2022-11-17T16:59:59.077Z,98348.66
2022-11-17T17:10:05.470Z,98358.66
2022-11-17T17:20:11.151Z,98359.41
2022-11-17T17:30:18.243Z,98367.19
2022-11-17T17:40:21.997Z,98362.94
2022-11-17T17:50:27.041Z,98377.03
2022-11-17T18:00:30.765Z,98380.09
2022-11-17T18:10:37.271Z,98396.78
2022-11-17T18:20:41.154Z,98410.00
2022-11-17T18:30:46.211Z,98421.97
2022-11-17T18:40:49.945Z,98422.84
2022-11-17T18:51:18.086Z,98414.16
2022-11-17T19:01:21.497Z,98408.91
2022-11-17T19:11:27.419Z,98424.72
2022-11-17T19:21:33.611Z,98409.44
2022-11-17T19:31:39.338Z,98414.28
2022-11-17T19:41:43.583Z,98424.31
2022-11-17T19:51:48.768Z,98444.44
2022-11-17T20:01:53.002Z,98461.88
2022-11-17T20:11:58.505Z,98474.94
2022-11-17T20:22:02.199Z,98463.94
2022-11-17T20:32:07.394Z,98452.88
2022-11-17T20:42:13.213Z,98463.53
2022-11-17T20:52:18.239Z,98478.47
2022-11-17T21:02:22.033Z,98476.00
2022-11-17T21:12:27.182Z,98496.88
2022-11-17T21:22:31.085Z,98509.97
2022-11-17T21:32:36.225Z,98509.41
2022-11-17T21:42:40.007Z,98521.34
2022-11-17T21:52:44.953Z,98524.03
2022-11-17T22:02:48.746Z,98528.06
2022-11-17T22:12:53.901Z,98523.72
2022-11-17T22:22:57.753Z,98539.88
2022-11-17T22:33:02.753Z,98544.31
2022-11-17T22:43:11.752Z,98552.28
2022-11-17T22:53:19.590Z,98556.00
2022-11-17T23:03:24.217Z,98549.47
2022-11-17T23:13:29.770Z,98541.88
2022-11-17T23:23:34.369Z,98541.97
2022-11-17T23:33:42.541Z,98542.53
2022-11-17T23:43:46.592Z,98562.06
2022-11-17T23:53:51.769Z,98555.31
